Time;durP1;ratioP1;P1;durP2;ratioP2;P2;SDS_P1;SDS_P2;PMS_P1;PMS_P2;Temp;Humidity;BMP_temperature;BMP_pressure;BME280_temperature;BME280_humidity;BME280_pressure;Samples;Min_cycle;Max_cycle;Signal;HPM_P1;HPM_P2
2022/05/25 00:02:24;;;;;;;2.88;0.65;;;14.80;99.90;;;;;;5010967;28;20464;-76
2022/05/25 00:04:51;;;;;;;1.42;0.40;;;14.80;99.90;;;;;;5008556;28;20095;-76
2022/05/25 00:07:17;;;;;;;1.00;0.60;;;14.80;99.90;;;;;;4998858;28;20030;-76
2022/05/25 00:09:43;;;;;;;0.95;0.50;;;14.80;99.90;;;;;;4994083;28;20030;-76
2022/05/25 00:12:09;;;;;;;0.70;0.43;;;14.80;99.90;;;;;;5009532;28;20060;-76
2022/05/25 00:14:36;;;;;;;1.58;0.22;;;14.80;99.90;;;;;;5010318;28;20030;-76
2022/05/25 00:17:02;;;;;;;2.60;0.57;;;14.70;99.90;;;;;;5009572;28;20080;-76
2022/05/25 00:22:12;;;;;;;2.85;0.45;;;14.70;99.90;;;;;;4990702;28;20037;-77
2022/05/25 00:24:37;;;;;;;0.60;0.45;;;14.80;99.90;;;;;;4997107;28;20391;-76
2022/05/25 00:27:03;;;;;;;2.47;0.50;;;14.80;99.90;;;;;;5009474;28;20044;-76
2022/05/25 00:29:29;;;;;;;1.90;0.50;;;14.80;99.90;;;;;;5009235;28;20037;-77
2022/05/25 00:31:55;;;;;;;2.17;0.50;;;14.80;99.90;;;;;;4993659;28;20027;-77
2022/05/25 00:34:20;;;;;;;1.02;0.50;;;14.80;99.90;;;;;;4993137;28;20038;-78
2022/05/25 00:36:46;;;;;;;1.73;0.60;;;14.80;99.90;;;;;;5004814;28;20026;-78
2022/05/25 00:39:12;;;;;;;0.85;0.47;;;14.70;99.90;;;;;;5006644;28;20030;-78
2022/05/25 00:41:37;;;;;;;0.93;0.40;;;14.70;99.90;;;;;;4996649;28;20472;-78
2022/05/25 00:44:04;;;;;;;1.27;0.60;;;14.70;99.90;;;;;;4993398;28;20074;-77
2022/05/25 00:46:32;;;;;;;3.95;0.73;;;14.70;99.90;;;;;;5002828;28;20030;-77
2022/05/25 00:49:18;;;;;;;0.63;0.40;;;14.70;99.90;;;;;;5001662;28;20041;-77
2022/05/25 00:52:09;;;;;;;1.95;0.60;;;14.70;99.90;;;;;;5011979;28;20038;-77
2022/05/25 00:54:49;;;;;;;0.47;0.30;;;14.70;99.90;;;;;;5009389;28;20038;-77
2022/05/25 00:57:21;;;;;;;1.35;0.50;;;14.70;99.90;;;;;;5010648;28;20037;-77
2022/05/25 01:00:06;;;;;;;1.30;0.55;;;14.70;99.90;;;;;;5005880;28;20030;-78
2022/05/25 01:02:35;;;;;;;0.88;0.50;;;14.70;99.90;;;;;;5007610;28;20032;-77
2022/05/25 01:05:02;;;;;;;0.65;0.30;;;14.70;99.90;;;;;;5001208;28;20109;-76
2022/05/25 01:07:53;;;;;;;0.50;0.50;;;14.60;99.90;;;;;;5012624;28;20479;-78
2022/05/25 01:11:14;;;;;;;0.55;0.47;;;14.60;99.90;;;;;;5004383;28;20068;-77
2022/05/25 01:14:09;;;;;;;0.68;0.35;;;14.60;99.90;;;;;;5004453;28;20510;-77
2022/05/25 01:16:41;;;;;;;2.20;0.40;;;14.60;99.90;;;;;;4994499;28;20038;-76
2022/05/25 01:19:25;;;;;;;1.00;0.52;;;14.60;99.90;;;;;;4997195;28;20149;-76
2022/05/25 01:22:05;;;;;;;1.48;0.60;;;14.60;99.90;;;;;;4995186;28;20110;-77
2022/05/25 01:25:02;;;;;;;1.50;0.60;;;14.60;99.90;;;;;;5002186;28;20037;-77
2022/05/25 01:27:42;;;;;;;1.73;0.32;;;14.60;99.90;;;;;;5010508;28;20060;-77
2022/05/25 01:30:35;;;;;;;1.25;0.40;;;14.60;99.90;;;;;;4994817;28;20041;-76
2022/05/25 01:33:38;;;;;;;0.77;0.47;;;14.60;99.90;;;;;;5004932;28;20048;-77
2022/05/25 01:36:31;;;;;;;3.55;0.65;;;14.60;99.90;;;;;;4995220;28;20058;-76
2022/05/25 01:39:09;;;;;;;0.65;0.50;;;14.60;99.90;;;;;;5004664;28;20117;-77
2022/05/25 01:41:56;;;;;;;1.10;0.47;;;14.70;99.90;;;;;;5013177;28;20133;-77
2022/05/25 01:44:48;;;;;;;1.55;0.40;;;14.70;99.90;;;;;;5009590;28;20034;-77
2022/05/25 01:47:14;;;;;;;0.20;0.20;;;14.60;99.90;;;;;;4996674;28;20046;-78
2022/05/25 01:49:49;;;;;;;1.90;0.50;;;14.60;99.90;;;;;;5009892;28;20036;-78
2022/05/25 01:52:20;;;;;;;0.68;0.40;;;14.60;99.90;;;;;;5010500;28;20030;-78
2022/05/25 01:54:51;;;;;;;1.60;0.50;;;14.50;99.90;;;;;;5008536;28;20041;-78
2022/05/25 01:57:20;;;;;;;1.23;0.40;;;14.50;99.90;;;;;;4994269;28;20038;-77
2022/05/25 01:59:46;;;;;;;0.43;0.43;;;14.50;99.90;;;;;;5026122;28;20423;-77
2022/05/25 02:04:59;;;;;;;1.95;0.50;;;14.50;99.90;;;;;;4999636;28;20045;-79
2022/05/25 02:08:06;;;;;;;0.30;0.30;;;14.50;99.90;;;;;;5003141;28;20597;-80
2022/05/25 02:10:52;;;;;;;1.23;0.45;;;14.50;99.90;;;;;;4995572;28;20089;-80
2022/05/25 02:13:54;;;;;;;0.63;0.30;;;14.40;99.90;;;;;;5008648;28;20104;-79
2022/05/25 02:16:40;;;;;;;0.95;0.40;;;14.40;99.90;;;;;;5004702;28;20468;-79
2022/05/25 02:19:34;;;;;;;0.73;0.40;;;14.30;99.90;;;;;;5007356;28;20092;-78
2022/05/25 02:22:10;;;;;;;1.02;0.47;;;14.30;99.90;;;;;;4999689;28;20049;-79
2022/05/25 02:25:04;;;;;;;1.65;0.30;;;14.20;99.90;;;;;;5002192;28;20476;-79
2022/05/25 02:27:39;;;;;;;0.50;0.50;;;14.20;99.90;;;;;;5002477;28;20042;-78
2022/05/25 02:30:10;;;;;;;3.42;0.52;;;14.20;99.90;;;;;;4999876;28;20426;-78
2022/05/25 02:32:48;;;;;;;0.45;0.38;;;14.10;99.90;;;;;;5013150;28;20092;-78
2022/05/25 02:35:16;;;;;;;0.35;0.35;;;14.10;99.90;;;;;;4995657;28;20038;-78
2022/05/25 02:37:43;;;;;;;0.98;0.28;;;14.00;99.90;;;;;;4993910;28;20034;-78
2022/05/25 02:40:11;;;;;;;0.30;0.30;;;14.10;99.90;;;;;;4998221;28;20034;-78
2022/05/25 02:42:38;;;;;;;1.17;0.47;;;14.00;99.90;;;;;;5011059;28;20029;-77
2022/05/25 02:45:05;;;;;;;0.47;0.40;;;14.00;99.90;;;;;;4997715;28;20034;-77
2022/05/25 02:47:30;;;;;;;0.60;0.32;;;14.00;99.90;;;;;;4991960;28;20035;-78
2022/05/25 02:49:56;;;;;;;1.55;0.40;;;14.00;99.90;;;;;;4992843;28;20521;-78
2022/05/25 02:52:21;;;;;;;0.77;0.40;;;14.00;99.90;;;;;;5006938;28;20030;-77
2022/05/25 02:54:47;;;;;;;1.17;0.40;;;14.00;99.90;;;;;;5012410;28;20458;-79
2022/05/25 02:57:13;;;;;;;1.20;0.35;;;14.00;99.90;;;;;;5011683;28;20030;-78
2022/05/25 02:59:38;;;;;;;2.08;0.40;;;14.00;99.90;;;;;;5014564;28;20452;-78
2022/05/25 03:02:07;;;;;;;0.95;0.50;;;14.00;99.90;;;;;;4996760;28;20034;-78
2022/05/25 03:04:34;;;;;;;0.80;0.30;;;14.00;99.90;;;;;;5005473;28;20029;-78
2022/05/25 03:06:59;;;;;;;0.88;0.50;;;14.00;99.90;;;;;;5010310;28;20033;-79
2022/05/25 03:09:25;;;;;;;1.35;0.20;;;13.90;99.90;;;;;;5002478;28;20034;-77
2022/05/25 03:11:51;;;;;;;0.73;0.50;;;13.90;99.90;;;;;;4995329;28;20126;-78
2022/05/25 03:14:18;;;;;;;0.75;0.40;;;13.90;99.90;;;;;;5010430;28;20120;-77
2022/05/25 03:16:43;;;;;;;0.40;0.30;;;13.90;99.90;;;;;;5011510;28;20074;-78
2022/05/25 03:19:09;;;;;;;1.60;0.70;;;13.90;99.90;;;;;;5010455;28;20034;-77
2022/05/25 03:21:35;;;;;;;2.40;0.45;;;13.80;99.90;;;;;;5001992;28;20030;-77
2022/05/25 03:24:00;;;;;;;1.15;0.30;;;13.80;99.90;;;;;;4992328;28;20030;-77
2022/05/25 03:26:26;;;;;;;1.33;0.40;;;13.80;99.90;;;;;;4993228;28;20030;-77
2022/05/25 03:28:52;;;;;;;0.68;0.38;;;13.80;99.90;;;;;;4996136;28;20454;-77
2022/05/25 03:31:18;;;;;;;0.65;0.50;;;13.80;99.90;;;;;;4994745;28;20100;-77
2022/05/25 03:33:43;;;;;;;3.65;0.50;;;13.80;99.90;;;;;;5010759;28;20105;-76
2022/05/25 03:36:09;;;;;;;4.60;0.70;;;13.80;99.90;;;;;;5009258;28;20088;-76
2022/05/25 03:38:34;;;;;;;0.70;0.40;;;13.80;99.90;;;;;;4999427;28;20034;-77
2022/05/25 03:41:01;;;;;;;2.45;0.50;;;13.80;99.90;;;;;;4992649;28;20027;-77
2022/05/25 03:43:33;;;;;;;2.40;0.45;;;13.80;99.90;;;;;;5010184;28;20060;-78
2022/05/25 03:46:00;;;;;;;0.60;0.45;;;13.80;99.90;;;;;;5010138;28;20036;-77
2022/05/25 03:48:25;;;;;;;1.20;0.60;;;13.70;99.90;;;;;;5020582;28;20064;-77
2022/05/25 03:50:51;;;;;;;3.42;0.60;;;13.70;99.90;;;;;;5029117;28;20053;-77
2022/05/25 03:53:17;;;;;;;1.52;0.40;;;13.70;99.90;;;;;;5025616;28;20037;-77
2022/05/25 03:55:43;;;;;;;0.50;0.50;;;13.70;99.90;;;;;;5019808;28;20037;-77
2022/05/25 03:58:09;;;;;;;0.35;0.28;;;13.70;99.90;;;;;;5018547;28;20479;-77
2022/05/25 04:00:35;;;;;;;0.60;0.40;;;13.70;99.90;;;;;;5028218;28;20044;-77
2022/05/25 04:03:02;;;;;;;0.60;0.38;;;13.70;99.90;;;;;;5029351;28;20040;-77
2022/05/25 04:05:29;;;;;;;0.43;0.40;;;13.70;99.90;;;;;;5027517;28;20363;-77
2022/05/25 04:07:58;;;;;;;3.10;1.45;;;13.60;99.90;;;;;;5024805;28;20025;-78
2022/05/25 04:10:25;;;;;;;1.30;0.53;;;13.60;99.90;;;;;;5016183;28;20042;-78
2022/05/25 04:12:51;;;;;;;0.47;0.38;;;13.60;99.90;;;;;;5011386;28;20030;-78
2022/05/25 04:15:21;;;;;;;1.70;0.75;;;13.50;99.90;;;;;;5010158;28;20056;-78
2022/05/25 04:17:47;;;;;;;1.05;0.98;;;13.60;99.90;;;;;;5021452;28;20117;-78
2022/05/25 04:20:13;;;;;;;1.33;0.50;;;13.60;99.90;;;;;;5026394;28;20467;-77
2022/05/25 04:22:39;;;;;;;2.80;0.60;;;13.60;99.90;;;;;;5018302;28;20035;-78
2022/05/25 04:25:08;;;;;;;1.45;0.70;;;13.60;99.90;;;;;;5033983;28;20124;-77
2022/05/25 04:27:36;;;;;;;0.90;0.60;;;13.70;99.90;;;;;;5025240;28;20029;-78
2022/05/25 04:30:04;;;;;;;1.20;0.73;;;13.70;99.90;;;;;;5034036;28;20036;-78
2022/05/25 04:32:30;;;;;;;0.77;0.50;;;13.70;99.90;;;;;;5033281;28;20770;-78
2022/05/25 04:34:57;;;;;;;4.30;0.65;;;13.70;99.90;;;;;;5033573;28;20104;-78
2022/05/25 04:40:07;;;;;;;1.30;0.80;;;13.70;99.90;;;;;;5010059;28;20046;-77
2022/05/25 04:42:33;;;;;;;0.77;0.50;;;13.70;99.90;;;;;;5013910;28;20579;-77
2022/05/25 04:45:03;;;;;;;3.10;0.50;;;13.80;99.90;;;;;;5030983;28;20033;-77
2022/05/25 04:47:30;;;;;;;1.48;1.08;;;13.80;99.90;;;;;;5020539;28;20030;-77
2022/05/25 04:49:56;;;;;;;0.98;0.65;;;13.90;99.90;;;;;;5014394;28;20030;-77
2022/05/25 04:52:22;;;;;;;2.50;0.80;;;13.90;99.90;;;;;;5032088;28;20105;-77
2022/05/25 04:54:47;;;;;;;1.95;0.70;;;13.90;99.90;;;;;;5017954;28;20057;-77
2022/05/25 04:57:19;;;;;;;4.15;0.70;;;14.00;99.90;;;;;;5026582;28;20033;-77
2022/05/25 04:59:49;;;;;;;1.70;0.80;;;14.00;99.90;;;;;;5010578;28;20367;-79
2022/05/25 05:02:15;;;;;;;1.55;0.47;;;14.00;99.90;;;;;;5013162;28;20038;-78
2022/05/25 05:04:40;;;;;;;0.50;0.43;;;14.00;99.90;;;;;;5015421;28;20030;-83
2022/05/25 05:07:06;;;;;;;0.73;0.55;;;14.00;99.90;;;;;;5015198;28;20028;-82
2022/05/25 05:09:34;;;;;;;0.85;0.50;;;14.00;99.90;;;;;;5013620;28;20629;-77
2022/05/25 05:12:00;;;;;;;1.15;0.60;;;14.10;99.90;;;;;;5013950;28;20045;-76
2022/05/25 05:14:26;;;;;;;4.18;0.60;;;14.20;99.90;;;;;;5014386;28;20091;-76
2022/05/25 05:16:59;;;;;;;2.47;0.47;;;14.10;99.90;;;;;;5018219;28;20033;-78
2022/05/25 05:19:25;;;;;;;0.75;0.55;;;14.20;99.90;;;;;;5032551;28;20382;-77
2022/05/25 05:21:54;;;;;;;2.55;0.77;;;14.20;99.90;;;;;;5027863;28;20060;-76
2022/05/25 05:24:21;;;;;;;1.42;0.47;;;14.10;99.90;;;;;;5023135;28;20475;-77
2022/05/25 05:26:47;;;;;;;2.17;0.70;;;14.10;99.90;;;;;;5031780;28;20026;-77
2022/05/25 05:29:13;;;;;;;1.73;0.60;;;14.20;99.90;;;;;;5027199;28;20037;-79
2022/05/25 05:31:39;;;;;;;3.97;1.00;;;14.20;99.90;;;;;;5012278;28;20034;-84
2022/05/25 05:34:08;;;;;;;1.05;0.60;;;14.20;99.90;;;;;;5013953;28;20034;-87
2022/05/25 05:36:42;;;;;;;1.13;0.70;;;14.30;99.90;;;;;;5012771;28;20258;-78
2022/05/25 05:39:10;;;;;;;3.30;0.63;;;14.40;99.90;;;;;;5008141;28;20037;-79
2022/05/25 05:41:50;;;;;;;1.63;0.73;;;14.40;99.90;;;;;;5012727;28;20022;-79
2022/05/25 05:44:21;;;;;;;1.92;0.57;;;14.40;99.90;;;;;;5014827;28;20034;-87
2022/05/25 05:46:50;;;;;;;1.60;0.80;;;14.50;99.90;;;;;;5015010;28;20375;-79
2022/05/25 05:49:16;;;;;;;0.90;0.52;;;14.50;99.90;;;;;;5012527;28;20108;-81
2022/05/25 05:51:42;;;;;;;1.95;0.60;;;14.50;99.90;;;;;;5014648;28;20472;-77
2022/05/25 05:54:08;;;;;;;3.63;0.50;;;14.50;99.90;;;;;;5012906;28;20053;-80
2022/05/25 05:56:35;;;;;;;1.02;0.75;;;14.60;99.90;;;;;;5012484;28;20034;-79
2022/05/25 05:59:02;;;;;;;2.28;0.75;;;14.70;99.90;;;;;;5026961;28;20033;-83
2022/05/25 06:01:27;;;;;;;2.10;0.68;;;14.80;99.90;;;;;;5025139;28;20034;-81
2022/05/25 06:03:53;;;;;;;5.22;0.90;;;15.00;99.70;;;;;;5019498;28;20068;-81
2022/05/25 06:06:19;;;;;;;2.15;0.70;;;15.20;98.90;;;;;;5026210;28;20025;-82
2022/05/25 06:08:46;;;;;;;1.77;0.70;;;15.40;99.00;;;;;;5019916;28;20033;-79
2022/05/25 06:11:19;;;;;;;1.20;0.60;;;15.60;98.80;;;;;;5031433;28;20403;-79
2022/05/25 06:13:45;;;;;;;2.25;0.70;;;15.70;98.40;;;;;;5018485;28;20030;-79
2022/05/25 06:21:39;;;;;;;0.70;0.47;;;16.00;96.90;;;;;;5005230;28;20109;-79
2022/05/25 06:24:05;;;;;;;0.73;0.47;;;16.10;97.00;;;;;;5027415;28;20120;-78
2022/05/25 06:26:32;;;;;;;0.82;0.55;;;16.10;97.00;;;;;;5011694;28;20514;-78
2022/05/25 06:29:01;;;;;;;1.70;0.85;;;16.20;96.50;;;;;;5027171;28;20116;-78
2022/05/25 06:31:29;;;;;;;2.70;0.73;;;16.30;96.40;;;;;;5012077;28;20018;-79
2022/05/25 06:33:55;;;;;;;4.55;0.70;;;16.40;96.00;;;;;;5016596;28;20037;-79
2022/05/25 06:36:27;;;;;;;2.38;0.88;;;16.50;96.00;;;;;;5010966;28;20057;-79
2022/05/25 06:38:53;;;;;;;7.68;1.00;;;16.60;95.90;;;;;;5011691;28;20513;-79
2022/05/25 06:41:20;;;;;;;2.13;0.80;;;16.70;95.50;;;;;;5012234;28;20438;-81
2022/05/25 06:43:45;;;;;;;2.92;0.88;;;16.80;95.30;;;;;;5011519;28;20113;-79
2022/05/25 06:46:14;;;;;;;1.92;0.98;;;17.00;95.30;;;;;;5013073;28;20104;-78
2022/05/25 06:48:39;;;;;;;2.58;0.73;;;17.00;94.60;;;;;;5019216;28;20849;-79
2022/05/25 06:51:11;;;;;;;5.38;1.30;;;17.10;94.40;;;;;;5012847;28;20078;-79
2022/05/25 06:53:36;;;;;;;2.10;0.70;;;17.10;94.30;;;;;;5017117;28;20064;-79
2022/05/25 06:56:02;;;;;;;2.25;0.70;;;17.20;94.30;;;;;;5010938;28;20026;-78
2022/05/25 06:58:28;;;;;;;3.25;0.70;;;17.40;94.70;;;;;;5026886;28;20087;-79
2022/05/25 07:00:53;;;;;;;2.50;0.80;;;17.60;92.90;;;;;;5031330;28;20141;-78
2022/05/25 07:03:20;;;;;;;1.15;0.60;;;17.60;93.60;;;;;;5020280;28;20028;-80
2022/05/25 07:05:46;;;;;;;2.85;0.68;;;17.50;93.60;;;;;;5016759;28;20041;-79
2022/05/25 07:08:12;;;;;;;4.20;1.02;;;17.50;93.70;;;;;;5020900;28;20041;-79
2022/05/25 07:10:38;;;;;;;3.83;0.77;;;17.50;94.10;;;;;;5029946;28;20103;-79
2022/05/25 07:13:03;;;;;;;2.78;1.00;;;17.40;94.00;;;;;;5016705;28;20030;-80
2022/05/25 07:15:29;;;;;;;1.85;0.70;;;17.40;94.00;;;;;;5010538;28;20042;-80
2022/05/25 07:17:55;;;;;;;4.45;0.82;;;17.50;93.70;;;;;;5012071;28;20117;-78
2022/05/25 07:20:20;;;;;;;1.77;0.73;;;17.60;93.10;;;;;;5027981;28;20025;-83
2022/05/25 07:22:46;;;;;;;1.55;0.60;;;17.60;92.50;;;;;;5019771;28;20026;-79
2022/05/25 07:25:12;;;;;;;1.05;0.50;;;17.50;93.10;;;;;;5011554;28;20038;-79
2022/05/25 07:27:39;;;;;;;1.48;0.70;;;17.50;93.00;;;;;;5027050;28;20037;-79
2022/05/25 07:30:05;;;;;;;2.55;0.70;;;17.50;92.50;;;;;;5033230;28;20030;-79
2022/05/25 07:32:31;;;;;;;1.63;0.73;;;17.50;92.50;;;;;;5014870;28;20030;-80
2022/05/25 07:35:02;;;;;;;2.08;0.77;;;17.60;92.80;;;;;;5003570;28;20036;-79
2022/05/25 07:37:33;;;;;;;2.15;0.70;;;17.70;91.50;;;;;;5011597;28;20030;-78
2022/05/25 07:40:08;;;;;;;2.70;0.80;;;17.80;91.70;;;;;;5017470;28;20025;-78
2022/05/25 07:42:34;;;;;;;1.35;0.60;;;17.90;91.10;;;;;;5029234;28;20048;-78
2022/05/25 07:45:03;;;;;;;1.15;0.82;;;17.90;91.00;;;;;;5023596;28;20101;-79
2022/05/25 07:47:31;;;;;;;3.03;0.90;;;17.90;90.10;;;;;;5019786;28;20017;-78
2022/05/25 07:49:56;;;;;;;1.13;0.65;;;17.90;90.10;;;;;;5029891;28;20022;-79
2022/05/25 07:52:25;;;;;;;2.47;0.47;;;18.00;89.60;;;;;;5026093;28;20029;-82
2022/05/25 07:54:51;;;;;;;0.82;0.80;;;18.10;89.60;;;;;;5032778;28;20029;-78
2022/05/25 07:57:17;;;;;;;3.72;0.85;;;18.20;89.90;;;;;;5030336;28;20044;-79
2022/05/25 07:59:43;;;;;;;2.22;0.70;;;18.40;90.20;;;;;;5014203;28;20101;-78
2022/05/25 08:07:48;;;;;;;1.60;0.60;;;18.50;88.70;;;;;;5023394;28;20111;-78
2022/05/25 08:10:18;;;;;;;5.00;0.93;;;18.60;88.20;;;;;;5014574;28;20093;-78
2022/05/25 08:12:44;;;;;;;3.47;0.82;;;18.60;86.70;;;;;;5008757;28;20034;-79
2022/05/25 08:15:13;;;;;;;4.43;0.80;;;18.70;85.60;;;;;;5019319;28;20033;-79
2022/05/25 08:17:39;;;;;;;5.90;0.82;;;19.00;85.10;;;;;;5014961;28;20022;-80
2022/05/25 08:20:05;;;;;;;3.83;0.80;;;19.40;84.60;;;;;;5013335;28;20065;-79
2022/05/25 08:22:31;;;;;;;1.00;0.47;;;19.50;81.90;;;;;;5020448;28;20026;-78
2022/05/25 08:24:57;;;;;;;1.00;0.60;;;19.30;81.60;;;;;;5014955;28;20059;-76
2022/05/25 08:27:23;;;;;;;6.30;1.10;;;19.30;83.30;;;;;;5025915;28;20060;-80
2022/05/25 08:29:49;;;;;;;1.10;0.47;;;19.40;82.80;;;;;;5034213;28;20450;-78
2022/05/25 08:32:14;;;;;;;1.42;0.60;;;19.50;81.50;;;;;;5022654;28;20036;-79
2022/05/25 08:34:41;;;;;;;1.90;0.75;;;19.70;81.80;;;;;;5030794;28;20219;-80
2022/05/25 08:37:07;;;;;;;3.78;0.80;;;19.70;80.00;;;;;;5032289;28;20097;-80
2022/05/25 08:39:33;;;;;;;10.07;1.20;;;19.70;80.90;;;;;;5027972;28;20390;-77
2022/05/25 08:42:04;;;;;;;1.15;0.50;;;19.70;82.00;;;;;;5016261;28;20116;-77
2022/05/25 08:44:31;;;;;;;3.97;0.98;;;19.60;79.40;;;;;;5021612;28;20052;-75
2022/05/25 08:47:01;;;;;;;2.50;0.88;;;19.40;79.40;;;;;;5023170;28;20017;-82
2022/05/25 08:49:29;;;;;;;;;;;19.30;80.10;;;;;;5033234;28;20040;-78
2022/05/25 08:51:57;;;;;;;1.25;0.45;;;19.30;80.10;;;;;;5014359;28;19913;-84
2022/05/25 08:54:25;;;;;;;2.00;0.65;;;19.40;79.10;;;;;;5019995;28;20033;-79
2022/05/25 08:57:08;;;;;;;2.40;0.60;;;19.50;77.70;;;;;;5029726;28;20487;-78
2022/05/25 09:00:02;;;;;;;4.85;0.70;;;19.60;77.60;;;;;;5013875;28;20309;-79
2022/05/25 09:02:52;;;;;;;6.95;0.75;;;19.80;77.70;;;;;;5007827;28;20105;-78
2022/05/25 09:05:42;;;;;;;6.88;0.70;;;19.90;77.50;;;;;;5003575;28;20084;-84
2022/05/25 09:08:29;;;;;;;3.30;0.60;;;20.20;77.70;;;;;;5044674;28;20034;-84
2022/05/25 09:11:06;;;;;;;5.07;0.93;;;20.40;77.40;;;;;;5013962;28;20038;-78
2022/05/25 09:13:43;;;;;;;2.03;0.57;;;20.60;76.50;;;;;;5013484;28;20030;-78
2022/05/25 09:16:22;;;;;;;1.42;0.50;;;20.80;74.60;;;;;;5013539;28;20046;-78
2022/05/25 09:19:08;;;;;;;2.97;0.85;;;20.80;74.20;;;;;;5013169;28;20105;-76
2022/05/25 09:21:58;;;;;;;2.38;0.70;;;20.60;73.20;;;;;;5010261;28;20045;-78
2022/05/25 09:24:26;;;;;;;2.83;0.52;;;20.20;73.00;;;;;;4996162;28;20043;-79
2022/05/25 09:26:52;;;;;;;4.65;0.50;;;20.00;73.00;;;;;;5002302;28;20030;-80
2022/05/25 09:29:19;;;;;;;0.85;0.55;;;19.70;72.60;;;;;;5001348;28;20038;-80
2022/05/25 09:31:48;;;;;;;1.95;0.63;;;19.60;73.90;;;;;;4993603;28;20033;-80
2022/05/25 09:34:25;;;;;;;1.92;0.70;;;19.90;73.00;;;;;;4994083;28;20108;-85
2022/05/25 09:36:58;;;;;;;2.88;0.73;;;20.00;71.90;;;;;;5008814;28;20132;-86
2022/05/25 09:39:36;;;;;;;9.02;0.90;;;20.00;71.30;;;;;;5009672;28;20112;-82
2022/05/25 09:42:05;;;;;;;0.95;0.40;;;19.80;72.50;;;;;;5009019;28;20033;-86
2022/05/25 09:44:32;;;;;;;2.55;0.93;;;19.90;72.40;;;;;;5012376;28;20037;-80
2022/05/25 09:47:07;;;;;;;1.75;0.60;;;20.00;72.60;;;;;;5001920;28;20030;-82
2022/05/25 09:49:48;;;;;;;4.68;0.73;;;20.00;72.80;;;;;;4996958;28;20523;-82
2022/05/25 09:52:19;;;;;;;3.15;0.52;;;20.10;71.80;;;;;;4994049;28;20034;-82
2022/05/25 09:55:34;;;;;;;4.97;0.93;;;20.10;71.30;;;;;;4999948;28;20046;-81
2022/05/25 09:58:38;;;;;;;3.70;1.00;;;20.20;71.30;;;;;;5006197;28;20399;-84
2022/05/25 10:01:07;;;;;;;1.63;0.52;;;20.60;70.40;;;;;;4995874;28;20053;-82
2022/05/25 10:03:40;;;;;;;2.30;0.57;;;20.80;69.70;;;;;;5002226;28;20030;-77
2022/05/25 10:06:17;;;;;;;2.72;0.50;;;21.00;71.20;;;;;;5004754;28;20328;-75
2022/05/25 10:08:43;;;;;;;3.10;0.70;;;21.20;69.40;;;;;;5007386;28;20033;-84
2022/05/25 10:11:27;;;;;;;13.95;2.05;;;21.30;68.90;;;;;;4999815;28;20750;-83
2022/05/25 10:14:13;;;;;;;5.65;0.80;;;21.20;67.50;;;;;;5008309;28;20057;-86
2022/05/25 10:16:39;;;;;;;4.63;0.60;;;21.00;67.40;;;;;;5036489;28;20049;-82
2022/05/25 10:19:12;;;;;;;3.08;0.90;;;21.00;67.70;;;;;;5032060;28;20033;-83
2022/05/25 10:21:38;;;;;;;1.92;0.63;;;21.20;68.00;;;;;;5031343;28;20033;-82
2022/05/25 10:24:21;;;;;;;5.47;1.00;;;21.60;66.90;;;;;;5012784;28;20091;-78
2022/05/25 10:26:50;;;;;;;2.58;0.60;;;22.00;66.80;;;;;;5012099;28;20113;-79
2022/05/25 10:38:43;;;;;;;2.80;0.70;;;23.40;62.60;;;;;;4990250;28;20083;-86
2022/05/25 10:44:18;;;;;;;4.78;0.98;;;23.30;60.80;;;;;;5012531;28;20121;-83
2022/05/25 10:46:54;;;;;;;2.15;0.63;;;22.70;62.10;;;;;;5024524;28;20068;-89
2022/05/25 10:49:26;;;;;;;2.88;0.60;;;22.10;61.50;;;;;;5034653;28;20033;-88
2022/05/25 10:52:00;;;;;;;4.47;0.68;;;21.60;64.10;;;;;;5022869;28;20079;-80
2022/05/25 10:54:49;;;;;;;3.35;1.00;;;21.30;64.00;;;;;;5019788;28;20167;-86
2022/05/25 10:57:26;;;;;;;2.00;1.13;;;21.00;64.50;;;;;;5007235;28;20032;-81
2022/05/25 11:00:13;;;;;;;1.67;1.00;;;20.80;64.70;;;;;;5030388;28;20055;-83
2022/05/25 11:02:57;;;;;;;3.92;2.38;;;20.60;65.80;;;;;;5046534;28;20053;-85
2022/05/25 11:05:32;;;;;;;3.65;0.60;;;20.40;64.60;;;;;;5046810;28;20029;-89
2022/05/25 11:08:27;;;;;;;3.10;0.60;;;20.40;64.40;;;;;;5033944;28;20467;-85
2022/05/25 11:11:27;;;;;;;2.25;0.50;;;20.60;64.40;;;;;;5034601;28;20048;-86
2022/05/25 11:14:13;;;;;;;3.75;0.77;;;20.80;64.10;;;;;;5017527;28;20034;-81
2022/05/25 11:16:51;;;;;;;2.15;1.15;;;21.10;63.90;;;;;;5014768;28;20483;-69
2022/05/25 11:19:32;;;;;;;2.97;0.73;;;21.30;64.00;;;;;;5011816;28;20419;-77
2022/05/25 11:22:10;;;;;;;0.77;0.50;;;21.70;64.20;;;;;;5028387;28;20033;-77
2022/05/25 11:25:01;;;;;;;8.98;0.85;;;22.00;63.30;;;;;;5030132;28;20025;-78
2022/05/25 11:27:51;;;;;;;3.55;0.68;;;22.10;63.10;;;;;;5029887;28;20040;-79
2022/05/25 11:30:45;;;;;;;2.28;0.70;;;21.90;62.70;;;;;;5023304;28;20041;-79
2022/05/25 11:33:35;;;;;;;4.25;0.60;;;21.80;63.60;;;;;;5011528;28;20109;-78
2022/05/25 11:36:03;;;;;;;1.75;0.65;;;21.60;62.90;;;;;;5012740;28;20058;-78
2022/05/25 11:38:43;;;;;;;1.13;0.50;;;21.40;63.40;;;;;;5011271;28;20057;-81
2022/05/25 11:41:36;;;;;;;5.13;0.80;;;21.40;63.40;;;;;;5023969;28;20033;-79
2022/05/25 11:44:19;;;;;;;7.65;0.70;;;21.40;64.30;;;;;;5021698;28;20475;-77
2022/05/25 11:46:50;;;;;;;3.22;0.63;;;21.40;63.90;;;;;;5021414;28;20093;-78
2022/05/25 11:49:33;;;;;;;3.28;0.82;;;21.40;63.70;;;;;;5020387;28;20463;-78
2022/05/25 11:52:24;;;;;;;1.60;0.90;;;21.70;62.30;;;;;;5005118;28;20538;-78
2022/05/25 11:55:26;;;;;;;1.35;0.63;;;21.60;62.70;;;;;;5027747;28;20339;-80
2022/05/25 11:58:14;;;;;;;1.80;0.63;;;21.90;63.40;;;;;;5040167;28;20034;-79
2022/05/25 12:01:11;;;;;;;3.97;0.60;;;22.30;62.30;;;;;;5010407;28;20030;-79
2022/05/25 12:04:07;;;;;;;2.47;0.77;;;22.90;61.40;;;;;;5028183;28;20030;-79
2022/05/25 12:07:10;;;;;;;0.85;0.40;;;23.40;59.90;;;;;;5029614;28;20040;-83
2022/05/25 12:09:44;;;;;;;1.45;0.70;;;23.50;59.10;;;;;;5026867;28;20034;-78
2022/05/25 12:12:27;;;;;;;1.17;0.57;;;23.50;59.90;;;;;;5024548;28;20057;-77
2022/05/25 12:15:02;;;;;;;1.65;0.50;;;23.40;59.60;;;;;;5012030;28;20026;-77
2022/05/25 12:18:02;;;;;;;1.25;0.60;;;23.20;58.70;;;;;;5030894;28;20079;-76
2022/05/25 12:20:44;;;;;;;1.05;0.60;;;23.00;59.10;;;;;;5028985;28;20030;-77
2022/05/25 12:23:15;;;;;;;3.75;1.10;;;23.10;59.10;;;;;;5017414;28;20491;-76
2022/05/25 12:25:56;;;;;;;1.77;0.70;;;23.00;59.50;;;;;;5010489;28;20045;-77
2022/05/25 12:28:29;;;;;;;3.80;0.65;;;22.90;59.70;;;;;;5006459;28;20033;-78
2022/05/25 12:31:01;;;;;;;1.92;0.70;;;23.30;60.60;;;;;;5010721;28;20068;-78
2022/05/25 12:33:28;;;;;;;4.70;0.75;;;24.10;58.40;;;;;;5030052;28;20032;-77
2022/05/25 12:35:55;;;;;;;1.23;0.52;;;24.50;57.00;;;;;;5028189;28;20029;-76
2022/05/25 12:38:25;;;;;;;1.60;0.52;;;25.00;55.20;;;;;;5030509;28;20037;-77
2022/05/25 12:40:52;;;;;;;2.13;0.73;;;25.20;54.70;;;;;;5029231;28;20625;-72
2022/05/25 12:43:40;;;;;;;1.02;0.57;;;25.30;55.00;;;;;;5016712;28;20061;-79
2022/05/25 12:49:04;;;;;;;3.83;0.60;;;25.40;54.20;;;;;;5014075;28;20110;-75
2022/05/25 12:51:39;;;;;;;2.72;0.70;;;25.70;54.30;;;;;;5023163;28;20030;-77
2022/05/25 12:54:18;;;;;;;3.90;0.75;;;;;;;;;;5015829;28;20040;-74
2022/05/25 12:56:45;;;;;;;2.22;0.70;;;26.40;54.10;;;;;;5029940;28;20116;-75
2022/05/25 12:59:30;;;;;;;0.70;0.60;;;26.60;52.10;;;;;;5016882;28;20141;-76
2022/05/25 13:02:29;;;;;;;0.80;0.73;;;26.90;51.30;;;;;;5008076;28;20034;-78
2022/05/25 13:04:59;;;;;;;1.33;0.60;;;27.20;79.80;;;;;;5012761;28;20575;-77
2022/05/25 13:07:46;;;;;;;1.23;0.60;;;26.90;74.70;;;;;;5014685;28;20038;-76
2022/05/25 13:10:19;;;;;;;1.05;0.68;;;26.20;74.60;;;;;;5032478;28;20399;-74
2022/05/25 13:12:49;;;;;;;2.90;0.60;;;25.40;74.40;;;;;;5016667;28;20475;-76
2022/05/25 13:15:15;;;;;;;2.17;1.05;;;24.70;74.70;;;;;;5015487;28;20521;-77
2022/05/25 13:17:46;;;;;;;3.28;0.63;;;24.10;74.70;;;;;;5029858;28;20033;-75
2022/05/25 13:20:28;;;;;;;3.53;0.65;;;23.50;77.30;;;;;;5033482;28;20082;-75
2022/05/25 13:23:02;;;;;;;4.50;0.80;;;23.10;79.40;;;;;;5015919;28;20026;-75
2022/05/25 13:26:03;;;;;;;0.88;0.57;;;23.10;79.70;;;;;;5013907;28;20044;-76
2022/05/25 13:28:42;;;;;;;2.88;0.50;;;23.70;78.70;;;;;;5012092;28;20041;-77
2022/05/25 13:31:13;;;;;;;1.85;0.70;;;24.40;77.80;;;;;;5020514;28;20479;-77
2022/05/25 13:33:43;;;;;;;2.95;0.60;;;24.60;76.80;;;;;;5031748;28;20091;-76
2022/05/25 13:36:22;;;;;;;0.90;0.40;;;24.40;76.40;;;;;;5031640;28;20112;-76
2022/05/25 13:38:59;;;;;;;3.60;0.60;;;24.10;77.00;;;;;;5016652;28;20042;-75
2022/05/25 13:41:30;;;;;;;1.00;0.50;;;23.70;76.90;;;;;;5024980;28;20107;-78
2022/05/25 13:44:06;;;;;;;5.90;0.77;;;23.60;78.50;;;;;;5031610;28;20487;-76
2022/05/25 13:46:44;;;;;;;3.63;0.63;;;23.60;77.50;;;;;;5024765;28;20026;-75
2022/05/25 13:49:31;;;;;;;1.30;0.60;;;23.80;76.70;;;;;;5017794;28;20057;-80
2022/05/25 13:52:31;;;;;;;2.65;0.60;;;24.20;76.70;;;;;;5020242;28;20029;-75
2022/05/25 13:55:02;;;;;;;1.43;0.60;;;24.50;75.10;;;;;;5009443;28;20490;-81